sensor_id;sensor_type;location;lat;lon;timestamp;P1;durP1;ratioP1;P2;durP2;ratioP2
76786;SDS011;65739;51.482;5.702;2023-04-24T00:02:12;14.68;;;9.57;;
76786;SDS011;65739;51.482;5.702;2023-04-24T00:04:38;14.95;;;10.18;;
76786;SDS011;65739;51.482;5.702;2023-04-24T00:07:09;14.20;;;10.48;;
76786;SDS011;65739;51.482;5.702;2023-04-24T00:09:35;17.15;;;10.70;;
76786;SDS011;65739;51.482;5.702;2023-04-24T00:12:01;18.23;;;10.77;;
76786;SDS011;65739;51.482;5.702;2023-04-24T00:14:29;14.55;;;11.50;;
76786;SDS011;65739;51.482;5.702;2023-04-24T00:16:55;15.05;;;11.27;;
76786;SDS011;65739;51.482;5.702;2023-04-24T00:19:20;15.60;;;10.23;;
76786;SDS011;65739;51.482;5.702;2023-04-24T00:21:46;14.60;;;10.70;;
76786;SDS011;65739;51.482;5.702;2023-04-24T00:24:15;18.20;;;10.75;;
76786;SDS011;65739;51.482;5.702;2023-04-24T00:26:41;22.17;;;11.13;;
76786;SDS011;65739;51.482;5.702;2023-04-24T00:29:07;20.45;;;11.02;;
76786;SDS011;65739;51.482;5.702;2023-04-24T00:31:32;13.95;;;10.27;;
76786;SDS011;65739;51.482;5.702;2023-04-24T00:33:59;16.58;;;10.63;;
76786;SDS011;65739;51.482;5.702;2023-04-24T00:36:28;14.30;;;10.32;;
76786;SDS011;65739;51.482;5.702;2023-04-24T00:38:55;20.98;;;10.38;;
76786;SDS011;65739;51.482;5.702;2023-04-24T00:41:21;18.90;;;10.45;;
76786;SDS011;65739;51.482;5.702;2023-04-24T00:43:47;22.38;;;10.68;;
76786;SDS011;65739;51.482;5.702;2023-04-24T00:46:13;14.20;;;8.65;;
76786;SDS011;65739;51.482;5.702;2023-04-24T00:48:39;19.35;;;9.88;;
76786;SDS011;65739;51.482;5.702;2023-04-24T00:51:05;18.00;;;10.65;;
76786;SDS011;65739;51.482;5.702;2023-04-24T00:53:30;18.30;;;10.63;;
76786;SDS011;65739;51.482;5.702;2023-04-24T00:55:56;17.90;;;10.88;;
76786;SDS011;65739;51.482;5.702;2023-04-24T00:58:22;18.38;;;11.40;;
76786;SDS011;65739;51.482;5.702;2023-04-24T01:00:48;21.10;;;11.95;;
76786;SDS011;65739;51.482;5.702;2023-04-24T01:03:17;18.58;;;11.70;;
76786;SDS011;65739;51.482;5.702;2023-04-24T01:05:45;26.55;;;13.02;;
76786;SDS011;65739;51.482;5.702;2023-04-24T01:08:11;20.48;;;11.75;;
76786;SDS011;65739;51.482;5.702;2023-04-24T01:10:36;22.05;;;13.25;;
76786;SDS011;65739;51.482;5.702;2023-04-24T01:13:05;22.70;;;13.15;;
76786;SDS011;65739;51.482;5.702;2023-04-24T01:15:32;22.08;;;12.50;;
76786;SDS011;65739;51.482;5.702;2023-04-24T01:17:57;27.63;;;13.57;;
76786;SDS011;65739;51.482;5.702;2023-04-24T01:20:23;23.42;;;12.60;;
76786;SDS011;65739;51.482;5.702;2023-04-24T01:22:51;23.58;;;12.90;;
76786;SDS011;65739;51.482;5.702;2023-04-24T01:25:16;24.80;;;12.75;;
76786;SDS011;65739;51.482;5.702;2023-04-24T01:27:42;25.27;;;14.52;;
76786;SDS011;65739;51.482;5.702;2023-04-24T01:30:08;26.73;;;14.95;;
76786;SDS011;65739;51.482;5.702;2023-04-24T01:32:35;22.38;;;14.68;;
76786;SDS011;65739;51.482;5.702;2023-04-24T01:35:01;25.70;;;15.15;;
76786;SDS011;65739;51.482;5.702;2023-04-24T01:37:27;26.42;;;14.68;;
76786;SDS011;65739;51.482;5.702;2023-04-24T01:39:53;32.85;;;15.07;;
76786;SDS011;65739;51.482;5.702;2023-04-24T01:42:18;26.27;;;14.93;;
76786;SDS011;65739;51.482;5.702;2023-04-24T01:44:44;29.05;;;15.70;;
76786;SDS011;65739;51.482;5.702;2023-04-24T01:47:10;31.42;;;15.63;;
76786;SDS011;65739;51.482;5.702;2023-04-24T01:49:37;26.90;;;16.30;;
76786;SDS011;65739;51.482;5.702;2023-04-24T01:52:03;24.40;;;15.43;;
76786;SDS011;65739;51.482;5.702;2023-04-24T01:54:29;26.73;;;15.32;;
76786;SDS011;65739;51.482;5.702;2023-04-24T01:56:55;27.95;;;15.95;;
76786;SDS011;65739;51.482;5.702;2023-04-24T01:59:20;28.48;;;17.15;;
76786;SDS011;65739;51.482;5.702;2023-04-24T02:01:48;28.77;;;16.70;;
76786;SDS011;65739;51.482;5.702;2023-04-24T02:04:13;26.45;;;14.48;;
76786;SDS011;65739;51.482;5.702;2023-04-24T02:06:40;28.08;;;15.88;;
76786;SDS011;65739;51.482;5.702;2023-04-24T02:09:05;33.10;;;17.35;;
76786;SDS011;65739;51.482;5.702;2023-04-24T02:11:31;32.53;;;16.67;;
76786;SDS011;65739;51.482;5.702;2023-04-24T02:13:57;29.27;;;17.02;;
76786;SDS011;65739;51.482;5.702;2023-04-24T02:16:22;31.10;;;16.58;;
76786;SDS011;65739;51.482;5.702;2023-04-24T02:18:48;29.65;;;17.05;;
76786;SDS011;65739;51.482;5.702;2023-04-24T02:21:14;29.77;;;18.95;;
76786;SDS011;65739;51.482;5.702;2023-04-24T02:23:39;34.35;;;18.95;;
76786;SDS011;65739;51.482;5.702;2023-04-24T02:26:05;29.95;;;18.08;;
76786;SDS011;65739;51.482;5.702;2023-04-24T02:28:30;30.10;;;17.67;;
76786;SDS011;65739;51.482;5.702;2023-04-24T02:30:56;31.73;;;17.75;;
76786;SDS011;65739;51.482;5.702;2023-04-24T02:33:21;30.75;;;17.75;;
76786;SDS011;65739;51.482;5.702;2023-04-24T02:35:47;31.00;;;17.30;;
76786;SDS011;65739;51.482;5.702;2023-04-24T02:38:13;25.80;;;16.70;;
76786;SDS011;65739;51.482;5.702;2023-04-24T02:40:38;24.38;;;16.80;;
76786;SDS011;65739;51.482;5.702;2023-04-24T02:43:04;27.17;;;16.48;;
76786;SDS011;65739;51.482;5.702;2023-04-24T02:45:29;28.73;;;16.80;;
76786;SDS011;65739;51.482;5.702;2023-04-24T02:47:55;27.02;;;16.85;;
76786;SDS011;65739;51.482;5.702;2023-04-24T02:50:20;27.00;;;15.93;;
76786;SDS011;65739;51.482;5.702;2023-04-24T02:52:46;29.02;;;16.80;;
76786;SDS011;65739;51.482;5.702;2023-04-24T02:55:11;28.15;;;16.02;;
76786;SDS011;65739;51.482;5.702;2023-04-24T02:57:37;23.75;;;15.88;;
76786;SDS011;65739;51.482;5.702;2023-04-24T03:00:03;24.27;;;15.20;;
76786;SDS011;65739;51.482;5.702;2023-04-24T03:02:32;25.83;;;16.08;;
76786;SDS011;65739;51.482;5.702;2023-04-24T03:04:57;25.52;;;14.85;;
76786;SDS011;65739;51.482;5.702;2023-04-24T03:07:23;28.02;;;13.80;;
76786;SDS011;65739;51.482;5.702;2023-04-24T03:09:49;21.48;;;12.77;;
76786;SDS011;65739;51.482;5.702;2023-04-24T03:12:16;21.92;;;13.32;;
76786;SDS011;65739;51.482;5.702;2023-04-24T03:14:43;23.48;;;14.23;;
76786;SDS011;65739;51.482;5.702;2023-04-24T03:17:08;22.20;;;13.60;;
76786;SDS011;65739;51.482;5.702;2023-04-24T03:19:34;19.35;;;12.63;;
76786;SDS011;65739;51.482;5.702;2023-04-24T03:22:01;22.73;;;13.77;;
76786;SDS011;65739;51.482;5.702;2023-04-24T03:24:27;24.55;;;12.93;;
76786;SDS011;65739;51.482;5.702;2023-04-24T03:26:53;22.02;;;13.30;;
76786;SDS011;65739;51.482;5.702;2023-04-24T03:29:19;21.13;;;12.35;;
76786;SDS011;65739;51.482;5.702;2023-04-24T03:31:44;23.60;;;11.70;;
76786;SDS011;65739;51.482;5.702;2023-04-24T03:34:10;19.17;;;13.13;;
76786;SDS011;65739;51.482;5.702;2023-04-24T03:36:35;17.73;;;12.00;;
76786;SDS011;65739;51.482;5.702;2023-04-24T03:39:01;21.75;;;10.90;;
76786;SDS011;65739;51.482;5.702;2023-04-24T03:41:26;21.77;;;10.85;;
76786;SDS011;65739;51.482;5.702;2023-04-24T03:43:52;22.98;;;11.90;;
76786;SDS011;65739;51.482;5.702;2023-04-24T03:46:18;21.60;;;12.30;;
76786;SDS011;65739;51.482;5.702;2023-04-24T03:48:43;18.63;;;11.05;;
76786;SDS011;65739;51.482;5.702;2023-04-24T03:51:09;17.77;;;11.68;;
76786;SDS011;65739;51.482;5.702;2023-04-24T03:53:34;20.65;;;11.80;;
76786;SDS011;65739;51.482;5.702;2023-04-24T03:56:00;22.58;;;12.00;;
76786;SDS011;65739;51.482;5.702;2023-04-24T03:58:25;18.65;;;11.00;;
76786;SDS011;65739;51.482;5.702;2023-04-24T04:00:51;17.20;;;11.35;;
76786;SDS011;65739;51.482;5.702;2023-04-24T04:03:17;16.60;;;11.73;;
76786;SDS011;65739;51.482;5.702;2023-04-24T04:05:42;18.27;;;11.27;;
76786;SDS011;65739;51.482;5.702;2023-04-24T04:08:08;19.45;;;10.57;;
76786;SDS011;65739;51.482;5.702;2023-04-24T04:10:33;16.88;;;10.73;;
76786;SDS011;65739;51.482;5.702;2023-04-24T04:12:59;15.50;;;10.88;;
76786;SDS011;65739;51.482;5.702;2023-04-24T04:15:25;17.80;;;10.55;;
76786;SDS011;65739;51.482;5.702;2023-04-24T04:17:50;20.92;;;10.98;;
76786;SDS011;65739;51.482;5.702;2023-04-24T04:20:16;16.80;;;10.10;;
76786;SDS011;65739;51.482;5.702;2023-04-24T04:22:41;14.57;;;10.40;;
76786;SDS011;65739;51.482;5.702;2023-04-24T04:25:07;17.42;;;11.07;;
76786;SDS011;65739;51.482;5.702;2023-04-24T04:27:33;15.65;;;11.38;;
76786;SDS011;65739;51.482;5.702;2023-04-24T04:29:59;14.27;;;10.68;;
76786;SDS011;65739;51.482;5.702;2023-04-24T04:32:30;15.52;;;10.18;;
76786;SDS011;65739;51.482;5.702;2023-04-24T04:34:59;16.95;;;10.50;;
76786;SDS011;65739;51.482;5.702;2023-04-24T04:37:28;15.35;;;10.68;;
76786;SDS011;65739;51.482;5.702;2023-04-24T04:39:54;15.48;;;11.50;;
76786;SDS011;65739;51.482;5.702;2023-04-24T04:42:20;18.13;;;10.20;;
76786;SDS011;65739;51.482;5.702;2023-04-24T04:44:46;15.68;;;10.73;;
76786;SDS011;65739;51.482;5.702;2023-04-24T04:47:11;13.30;;;9.55;;
76786;SDS011;65739;51.482;5.702;2023-04-24T04:49:37;13.80;;;10.02;;
76786;SDS011;65739;51.482;5.702;2023-04-24T04:52:03;13.93;;;9.60;;
76786;SDS011;65739;51.482;5.702;2023-04-24T04:54:29;13.35;;;10.05;;
76786;SDS011;65739;51.482;5.702;2023-04-24T04:56:55;14.32;;;9.70;;
76786;SDS011;65739;51.482;5.702;2023-04-24T04:59:22;18.27;;;10.32;;
76786;SDS011;65739;51.482;5.702;2023-04-24T05:01:47;15.48;;;10.05;;
76786;SDS011;65739;51.482;5.702;2023-04-24T05:04:13;19.50;;;11.07;;
76786;SDS011;65739;51.482;5.702;2023-04-24T05:06:38;16.25;;;9.45;;
76786;SDS011;65739;51.482;5.702;2023-04-24T05:09:04;14.82;;;10.40;;
76786;SDS011;65739;51.482;5.702;2023-04-24T05:11:30;15.98;;;10.40;;
76786;SDS011;65739;51.482;5.702;2023-04-24T05:13:55;12.85;;;9.25;;
76786;SDS011;65739;51.482;5.702;2023-04-24T05:16:21;14.60;;;10.45;;
76786;SDS011;65739;51.482;5.702;2023-04-24T05:18:46;14.02;;;10.30;;
76786;SDS011;65739;51.482;5.702;2023-04-24T05:21:12;15.23;;;10.05;;
76786;SDS011;65739;51.482;5.702;2023-04-24T05:23:37;15.15;;;9.57;;
76786;SDS011;65739;51.482;5.702;2023-04-24T05:26:03;15.23;;;9.60;;
76786;SDS011;65739;51.482;5.702;2023-04-24T05:28:29;14.63;;;9.23;;
76786;SDS011;65739;51.482;5.702;2023-04-24T05:30:55;14.35;;;9.38;;
76786;SDS011;65739;51.482;5.702;2023-04-24T05:33:20;11.20;;;8.15;;
76786;SDS011;65739;51.482;5.702;2023-04-24T05:35:47;14.10;;;8.60;;
76786;SDS011;65739;51.482;5.702;2023-04-24T05:38:13;15.85;;;8.40;;
76786;SDS011;65739;51.482;5.702;2023-04-24T05:40:39;9.90;;;7.75;;
76786;SDS011;65739;51.482;5.702;2023-04-24T05:43:05;10.73;;;6.78;;
76786;SDS011;65739;51.482;5.702;2023-04-24T05:45:30;10.02;;;6.22;;
76786;SDS011;65739;51.482;5.702;2023-04-24T05:47:56;6.97;;;4.97;;
76786;SDS011;65739;51.482;5.702;2023-04-24T05:50:22;6.30;;;4.88;;
76786;SDS011;65739;51.482;5.702;2023-04-24T05:52:47;6.13;;;4.53;;
76786;SDS011;65739;51.482;5.702;2023-04-24T05:55:13;6.82;;;3.85;;
76786;SDS011;65739;51.482;5.702;2023-04-24T05:57:39;5.57;;;3.97;;
76786;SDS011;65739;51.482;5.702;2023-04-24T06:00:04;7.43;;;4.00;;
76786;SDS011;65739;51.482;5.702;2023-04-24T06:02:30;6.93;;;3.80;;
76786;SDS011;65739;51.482;5.702;2023-04-24T06:04:58;3.67;;;3.15;;
76786;SDS011;65739;51.482;5.702;2023-04-24T06:07:24;6.22;;;3.28;;
76786;SDS011;65739;51.482;5.702;2023-04-24T06:09:51;3.53;;;2.50;;
76786;SDS011;65739;51.482;5.702;2023-04-24T06:12:17;5.95;;;2.40;;
76786;SDS011;65739;51.482;5.702;2023-04-24T06:14:42;2.45;;;1.75;;
76786;SDS011;65739;51.482;5.702;2023-04-24T06:17:08;4.53;;;1.65;;
76786;SDS011;65739;51.482;5.702;2023-04-24T06:19:34;1.83;;;1.70;;
76786;SDS011;65739;51.482;5.702;2023-04-24T06:21:59;2.25;;;1.55;;
76786;SDS011;65739;51.482;5.702;2023-04-24T06:24:28;5.38;;;1.52;;
76786;SDS011;65739;51.482;5.702;2023-04-24T06:26:53;2.60;;;1.30;;
76786;SDS011;65739;51.482;5.702;2023-04-24T06:29:19;3.20;;;1.45;;
76786;SDS011;65739;51.482;5.702;2023-04-24T06:31:45;2.22;;;1.38;;
76786;SDS011;65739;51.482;5.702;2023-04-24T06:34:10;3.58;;;1.65;;
76786;SDS011;65739;51.482;5.702;2023-04-24T06:36:36;4.18;;;1.92;;
76786;SDS011;65739;51.482;5.702;2023-04-24T06:39:02;3.05;;;1.92;;
76786;SDS011;65739;51.482;5.702;2023-04-24T06:41:27;4.90;;;1.90;;
76786;SDS011;65739;51.482;5.702;2023-04-24T06:43:53;2.92;;;1.90;;
76786;SDS011;65739;51.482;5.702;2023-04-24T06:46:19;6.22;;;2.70;;
76786;SDS011;65739;51.482;5.702;2023-04-24T06:48:48;5.97;;;2.60;;
76786;SDS011;65739;51.482;5.702;2023-04-24T06:51:14;2.53;;;2.33;;
76786;SDS011;65739;51.482;5.702;2023-04-24T06:53:40;8.35;;;2.50;;
76786;SDS011;65739;51.482;5.702;2023-04-24T06:56:05;2.35;;;2.15;;
76786;SDS011;65739;51.482;5.702;2023-04-24T06:58:31;2.92;;;1.88;;
76786;SDS011;65739;51.482;5.702;2023-04-24T07:00:56;3.47;;;1.80;;
76786;SDS011;65739;51.482;5.702;2023-04-24T07:03:22;2.60;;;2.00;;
76786;SDS011;65739;51.482;5.702;2023-04-24T07:05:48;2.30;;;1.95;;
76786;SDS011;65739;51.482;5.702;2023-04-24T07:08:14;3.95;;;2.75;;
76786;SDS011;65739;51.482;5.702;2023-04-24T07:10:41;2.83;;;2.45;;
76786;SDS011;65739;51.482;5.702;2023-04-24T07:13:07;4.85;;;3.10;;
76786;SDS011;65739;51.482;5.702;2023-04-24T07:15:33;4.97;;;3.10;;
76786;SDS011;65739;51.482;5.702;2023-04-24T07:17:59;5.13;;;4.28;;
76786;SDS011;65739;51.482;5.702;2023-04-24T07:20:25;8.00;;;5.70;;
76786;SDS011;65739;51.482;5.702;2023-04-24T07:22:51;12.48;;;7.53;;
76786;SDS011;65739;51.482;5.702;2023-04-24T07:25:18;9.25;;;7.57;;
76786;SDS011;65739;51.482;5.702;2023-04-24T07:27:44;11.57;;;8.90;;
76786;SDS011;65739;51.482;5.702;2023-04-24T07:30:10;18.98;;;9.63;;
76786;SDS011;65739;51.482;5.702;2023-04-24T07:32:36;20.65;;;9.32;;
76786;SDS011;65739;51.482;5.702;2023-04-24T07:35:01;20.30;;;10.02;;
76786;SDS011;65739;51.482;5.702;2023-04-24T07:37:27;16.35;;;10.73;;
76786;SDS011;65739;51.482;5.702;2023-04-24T07:39:53;20.50;;;10.77;;
76786;SDS011;65739;51.482;5.702;2023-04-24T07:42:19;19.83;;;11.27;;
76786;SDS011;65739;51.482;5.702;2023-04-24T07:44:44;21.10;;;10.45;;
76786;SDS011;65739;51.482;5.702;2023-04-24T07:47:11;18.33;;;11.35;;
76786;SDS011;65739;51.482;5.702;2023-04-24T07:49:37;19.08;;;10.48;;
76786;SDS011;65739;51.482;5.702;2023-04-24T07:52:03;20.40;;;10.80;;
76786;SDS011;65739;51.482;5.702;2023-04-24T07:54:29;14.38;;;9.38;;
76786;SDS011;65739;51.482;5.702;2023-04-24T07:56:54;17.40;;;10.50;;
76786;SDS011;65739;51.482;5.702;2023-04-24T07:59:20;21.58;;;10.82;;
76786;SDS011;65739;51.482;5.702;2023-04-24T08:01:45;19.80;;;10.35;;
76786;SDS011;65739;51.482;5.702;2023-04-24T08:04:11;21.23;;;9.82;;
76786;SDS011;65739;51.482;5.702;2023-04-24T08:06:36;16.23;;;8.95;;
76786;SDS011;65739;51.482;5.702;2023-04-24T08:09:02;19.70;;;9.10;;
76786;SDS011;65739;51.482;5.702;2023-04-24T08:11:28;17.08;;;8.88;;
76786;SDS011;65739;51.482;5.702;2023-04-24T08:13:53;18.25;;;7.93;;
76786;SDS011;65739;51.482;5.702;2023-04-24T08:16:19;14.95;;;6.65;;
76786;SDS011;65739;51.482;5.702;2023-04-24T08:18:45;21.85;;;7.60;;
76786;SDS011;65739;51.482;5.702;2023-04-24T08:21:11;29.30;;;9.55;;
76786;SDS011;65739;51.482;5.702;2023-04-24T08:23:37;18.02;;;7.20;;
76786;SDS011;65739;51.482;5.702;2023-04-24T08:26:03;14.52;;;7.43;;
76786;SDS011;65739;51.482;5.702;2023-04-24T08:28:29;15.00;;;6.25;;
76786;SDS011;65739;51.482;5.702;2023-04-24T08:30:55;17.27;;;7.30;;
76786;SDS011;65739;51.482;5.702;2023-04-24T08:33:24;21.35;;;7.35;;
76786;SDS011;65739;51.482;5.702;2023-04-24T08:35:49;23.58;;;8.23;;
76786;SDS011;65739;51.482;5.702;2023-04-24T08:38:15;23.42;;;8.00;;
76786;SDS011;65739;51.482;5.702;2023-04-24T08:40:41;18.20;;;7.18;;
76786;SDS011;65739;51.482;5.702;2023-04-24T08:43:08;23.80;;;7.60;;
76786;SDS011;65739;51.482;5.702;2023-04-24T08:45:35;21.50;;;7.82;;
76786;SDS011;65739;51.482;5.702;2023-04-24T08:48:01;22.02;;;8.07;;
76786;SDS011;65739;51.482;5.702;2023-04-24T08:50:29;23.75;;;7.82;;
76786;SDS011;65739;51.482;5.702;2023-04-24T08:52:55;23.25;;;7.95;;
76786;SDS011;65739;51.482;5.702;2023-04-24T08:55:22;28.55;;;9.02;;
76786;SDS011;65739;51.482;5.702;2023-04-24T08:57:50;20.55;;;7.90;;
76786;SDS011;65739;51.482;5.702;2023-04-24T09:00:18;23.23;;;8.82;;
76786;SDS011;65739;51.482;5.702;2023-04-24T09:02:45;23.60;;;8.50;;
76786;SDS011;65739;51.482;5.702;2023-04-24T09:05:13;20.63;;;8.18;;
76786;SDS011;65739;51.482;5.702;2023-04-24T09:07:41;27.65;;;8.70;;
76786;SDS011;65739;51.482;5.702;2023-04-24T09:10:11;18.90;;;8.40;;
76786;SDS011;65739;51.482;5.702;2023-04-24T09:12:37;21.98;;;8.13;;
76786;SDS011;65739;51.482;5.702;2023-04-24T09:15:03;21.20;;;7.82;;
76786;SDS011;65739;51.482;5.702;2023-04-24T09:17:30;22.02;;;7.38;;
76786;SDS011;65739;51.482;5.702;2023-04-24T09:19:56;27.52;;;7.47;;
76786;SDS011;65739;51.482;5.702;2023-04-24T09:22:21;19.10;;;6.70;;
76786;SDS011;65739;51.482;5.702;2023-04-24T09:24:47;13.38;;;5.68;;
76786;SDS011;65739;51.482;5.702;2023-04-24T09:27:13;21.58;;;5.32;;
76786;SDS011;65739;51.482;5.702;2023-04-24T09:29:45;13.90;;;4.78;;
76786;SDS011;65739;51.482;5.702;2023-04-24T09:32:20;11.52;;;4.43;;
76786;SDS011;65739;51.482;5.702;2023-04-24T09:34:47;20.02;;;4.90;;
76786;SDS011;65739;51.482;5.702;2023-04-24T09:37:25;14.57;;;4.53;;
76786;SDS011;65739;51.482;5.702;2023-04-24T09:42:39;13.00;;;3.95;;
76786;SDS011;65739;51.482;5.702;2023-04-24T09:45:08;10.00;;;3.70;;
76786;SDS011;65739;51.482;5.702;2023-04-24T09:47:36;16.27;;;4.20;;
76786;SDS011;65739;51.482;5.702;2023-04-24T09:50:09;15.45;;;3.75;;
76786;SDS011;65739;51.482;5.702;2023-04-24T09:52:39;13.48;;;4.15;;
76786;SDS011;65739;51.482;5.702;2023-04-24T09:55:19;13.77;;;3.83;;
76786;SDS011;65739;51.482;5.702;2023-04-24T09:57:49;15.35;;;3.88;;
76786;SDS011;65739;51.482;5.702;2023-04-24T10:00:37;13.10;;;4.10;;
76786;SDS011;65739;51.482;5.702;2023-04-24T10:03:04;12.30;;;4.00;;
76786;SDS011;65739;51.482;5.702;2023-04-24T10:05:34;19.42;;;5.00;;
76786;SDS011;65739;51.482;5.702;2023-04-24T10:08:05;18.13;;;4.35;;
76786;SDS011;65739;51.482;5.702;2023-04-24T10:10:34;10.27;;;3.33;;
76786;SDS011;65739;51.482;5.702;2023-04-24T10:13:03;9.20;;;3.40;;
76786;SDS011;65739;51.482;5.702;2023-04-24T10:15:29;14.77;;;3.20;;
76786;SDS011;65739;51.482;5.702;2023-04-24T10:17:55;14.75;;;3.05;;
76786;SDS011;65739;51.482;5.702;2023-04-24T10:20:24;11.43;;;2.05;;
76786;SDS011;65739;51.482;5.702;2023-04-24T10:22:51;8.25;;;2.38;;
76786;SDS011;65739;51.482;5.702;2023-04-24T10:25:19;7.35;;;2.78;;
76786;SDS011;65739;51.482;5.702;2023-04-24T10:27:45;8.05;;;2.25;;
76786;SDS011;65739;51.482;5.702;2023-04-24T10:30:12;8.40;;;2.00;;
76786;SDS011;65739;51.482;5.702;2023-04-24T10:32:38;8.63;;;2.22;;
76786;SDS011;65739;51.482;5.702;2023-04-24T10:35:06;11.20;;;2.33;;
76786;SDS011;65739;51.482;5.702;2023-04-24T10:37:40;5.90;;;2.15;;
76786;SDS011;65739;51.482;5.702;2023-04-24T10:40:11;7.82;;;2.03;;
76786;SDS011;65739;51.482;5.702;2023-04-24T10:45:15;16.33;;;2.17;;
76786;SDS011;65739;51.482;5.702;2023-04-24T10:48:02;6.57;;;1.92;;
76786;SDS011;65739;51.482;5.702;2023-04-24T10:53:15;8.77;;;1.95;;
76786;SDS011;65739;51.482;5.702;2023-04-24T10:58:12;4.97;;;1.30;;
76786;SDS011;65739;51.482;5.702;2023-04-24T11:00:38;2.85;;;1.27;;
76786;SDS011;65739;51.482;5.702;2023-04-24T11:03:06;12.98;;;1.73;;
76786;SDS011;65739;51.482;5.702;2023-04-24T11:05:49;2.72;;;0.88;;
76786;SDS011;65739;51.482;5.702;2023-04-24T11:08:23;1.73;;;0.93;;
76786;SDS011;65739;51.482;5.702;2023-04-24T11:10:55;4.50;;;0.95;;
76786;SDS011;65739;51.482;5.702;2023-04-24T11:13:23;2.38;;;1.00;;
76786;SDS011;65739;51.482;5.702;2023-04-24T11:19:04;5.03;;;1.05;;
76786;SDS011;65739;51.482;5.702;2023-04-24T11:21:41;3.22;;;0.82;;
76786;SDS011;65739;51.482;5.702;2023-04-24T11:27:15;5.18;;;1.00;;
76786;SDS011;65739;51.482;5.702;2023-04-24T11:35:02;5.47;;;1.00;;
76786;SDS011;65739;51.482;5.702;2023-04-24T11:37:42;3.07;;;1.07;;
76786;SDS011;65739;51.482;5.702;2023-04-24T11:40:15;7.07;;;1.65;;
76786;SDS011;65739;51.482;5.702;2023-04-24T11:42:45;7.43;;;1.20;;
76786;SDS011;65739;51.482;5.702;2023-04-24T11:45:21;6.80;;;1.10;;
76786;SDS011;65739;51.482;5.702;2023-04-24T11:47:48;3.95;;;1.30;;
76786;SDS011;65739;51.482;5.702;2023-04-24T11:50:14;7.85;;;1.55;;
76786;SDS011;65739;51.482;5.702;2023-04-24T11:52:42;5.65;;;1.20;;
76786;SDS011;65739;51.482;5.702;2023-04-24T11:57:52;3.40;;;1.00;;
76786;SDS011;65739;51.482;5.702;2023-04-24T12:00:25;2.30;;;1.02;;
76786;SDS011;65739;51.482;5.702;2023-04-24T12:03:02;4.65;;;0.80;;
76786;SDS011;65739;51.482;5.702;2023-04-24T12:07:59;7.20;;;1.00;;
76786;SDS011;65739;51.482;5.702;2023-04-24T12:10:26;4.32;;;0.90;;
76786;SDS011;65739;51.482;5.702;2023-04-24T12:12:53;2.75;;;0.70;;
76786;SDS011;65739;51.482;5.702;2023-04-24T12:15:21;5.78;;;0.70;;
76786;SDS011;65739;51.482;5.702;2023-04-24T12:17:47;3.22;;;0.90;;
76786;SDS011;65739;51.482;5.702;2023-04-24T12:20:15;3.80;;;0.90;;
76786;SDS011;65739;51.482;5.702;2023-04-24T12:22:44;4.57;;;0.90;;
76786;SDS011;65739;51.482;5.702;2023-04-24T12:25:14;4.95;;;1.13;;
76786;SDS011;65739;51.482;5.702;2023-04-24T12:27:41;4.03;;;0.80;;
76786;SDS011;65739;51.482;5.702;2023-04-24T12:30:10;1.23;;;0.77;;
76786;SDS011;65739;51.482;5.702;2023-04-24T12:32:45;2.45;;;0.90;;
76786;SDS011;65739;51.482;5.702;2023-04-24T12:35:13;1.42;;;0.70;;
76786;SDS011;65739;51.482;5.702;2023-04-24T12:37:41;7.15;;;1.20;;
76786;SDS011;65739;51.482;5.702;2023-04-24T12:40:09;4.45;;;0.82;;
76786;SDS011;65739;51.482;5.702;2023-04-24T12:42:41;4.32;;;0.75;;
76786;SDS011;65739;51.482;5.702;2023-04-24T12:45:08;1.40;;;0.75;;
76786;SDS011;65739;51.482;5.702;2023-04-24T12:47:34;4.78;;;0.95;;
76786;SDS011;65739;51.482;5.702;2023-04-24T12:50:01;4.28;;;0.70;;
76786;SDS011;65739;51.482;5.702;2023-04-24T12:52:27;2.67;;;0.90;;
76786;SDS011;65739;51.482;5.702;2023-04-24T12:54:54;4.45;;;0.90;;
76786;SDS011;65739;51.482;5.702;2023-04-24T12:57:21;1.90;;;0.60;;
76786;SDS011;65739;51.482;5.702;2023-04-24T12:59:48;2.60;;;0.68;;
76786;SDS011;65739;51.482;5.702;2023-04-24T13:02:13;3.90;;;0.90;;
76786;SDS011;65739;51.482;5.702;2023-04-24T13:04:42;2.20;;;0.50;;
76786;SDS011;65739;51.482;5.702;2023-04-24T13:07:11;2.28;;;0.73;;
76786;SDS011;65739;51.482;5.702;2023-04-24T13:09:38;3.45;;;0.60;;
76786;SDS011;65739;51.482;5.702;2023-04-24T13:12:04;2.90;;;0.90;;
76786;SDS011;65739;51.482;5.702;2023-04-24T13:14:30;3.10;;;0.77;;
76786;SDS011;65739;51.482;5.702;2023-04-24T13:16:56;2.05;;;0.82;;
76786;SDS011;65739;51.482;5.702;2023-04-24T13:19:23;2.60;;;0.60;;
76786;SDS011;65739;51.482;5.702;2023-04-24T13:21:50;4.63;;;0.80;;
76786;SDS011;65739;51.482;5.702;2023-04-24T13:24:16;2.42;;;0.60;;
76786;SDS011;65739;51.482;5.702;2023-04-24T13:26:42;2.75;;;0.82;;
76786;SDS011;65739;51.482;5.702;2023-04-24T13:29:07;2.45;;;0.77;;
76786;SDS011;65739;51.482;5.702;2023-04-24T13:31:33;4.55;;;0.70;;
76786;SDS011;65739;51.482;5.702;2023-04-24T13:33:59;3.20;;;0.70;;
76786;SDS011;65739;51.482;5.702;2023-04-24T13:36:24;3.97;;;0.85;;
76786;SDS011;65739;51.482;5.702;2023-04-24T13:38:51;9.52;;;0.98;;
76786;SDS011;65739;51.482;5.702;2023-04-24T13:41:16;3.28;;;0.80;;
76786;SDS011;65739;51.482;5.702;2023-04-24T13:43:42;4.75;;;1.17;;
76786;SDS011;65739;51.482;5.702;2023-04-24T13:46:08;1.80;;;1.10;;
76786;SDS011;65739;51.482;5.702;2023-04-24T13:48:33;5.05;;;1.02;;
76786;SDS011;65739;51.482;5.702;2023-04-24T13:50:59;1.90;;;0.60;;
76786;SDS011;65739;51.482;5.702;2023-04-24T13:53:25;2.67;;;0.70;;
76786;SDS011;65739;51.482;5.702;2023-04-24T13:55:51;3.55;;;0.80;;
76786;SDS011;65739;51.482;5.702;2023-04-24T13:58:16;1.95;;;0.68;;
76786;SDS011;65739;51.482;5.702;2023-04-24T14:00:42;4.65;;;1.33;;
76786;SDS011;65739;51.482;5.702;2023-04-24T14:03:08;2.38;;;0.80;;
76786;SDS011;65739;51.482;5.702;2023-04-24T14:05:33;3.25;;;1.00;;
76786;SDS011;65739;51.482;5.702;2023-04-24T14:07:59;5.82;;;1.00;;
76786;SDS011;65739;51.482;5.702;2023-04-24T14:10:25;7.43;;;1.77;;
76786;SDS011;65739;51.482;5.702;2023-04-24T14:12:52;2.10;;;0.93;;
76786;SDS011;65739;51.482;5.702;2023-04-24T14:15:18;4.63;;;1.20;;
76786;SDS011;65739;51.482;5.702;2023-04-24T14:17:43;5.68;;;1.20;;
76786;SDS011;65739;51.482;5.702;2023-04-24T14:20:09;3.13;;;1.10;;
76786;SDS011;65739;51.482;5.702;2023-04-24T14:22:35;6.95;;;1.15;;
76786;SDS011;65739;51.482;5.702;2023-04-24T14:25:01;2.08;;;0.93;;
76786;SDS011;65739;51.482;5.702;2023-04-24T14:27:26;6.45;;;1.10;;
76786;SDS011;65739;51.482;5.702;2023-04-24T14:29:52;2.50;;;1.00;;
76786;SDS011;65739;51.482;5.702;2023-04-24T14:32:17;3.80;;;1.50;;
76786;SDS011;65739;51.482;5.702;2023-04-24T14:34:43;1.90;;;0.95;;
76786;SDS011;65739;51.482;5.702;2023-04-24T14:37:09;4.72;;;1.10;;
76786;SDS011;65739;51.482;5.702;2023-04-24T14:39:34;3.45;;;0.98;;
76786;SDS011;65739;51.482;5.702;2023-04-24T14:42:00;4.28;;;1.38;;
76786;SDS011;65739;51.482;5.702;2023-04-24T14:44:26;3.20;;;1.00;;
76786;SDS011;65739;51.482;5.702;2023-04-24T14:46:51;4.28;;;1.10;;
76786;SDS011;65739;51.482;5.702;2023-04-24T14:49:18;2.20;;;0.80;;
76786;SDS011;65739;51.482;5.702;2023-04-24T14:51:43;3.88;;;0.90;;
76786;SDS011;65739;51.482;5.702;2023-04-24T14:54:09;2.97;;;0.93;;
76786;SDS011;65739;51.482;5.702;2023-04-24T14:56:35;2.83;;;1.00;;
76786;SDS011;65739;51.482;5.702;2023-04-24T14:59:00;4.25;;;1.00;;
76786;SDS011;65739;51.482;5.702;2023-04-24T15:01:26;5.88;;;1.08;;